sensor_id;sensor_type;location;lat;lon;timestamp;P1;durP1;ratioP1;P2;durP2;ratioP2
21862;SDS011;11096;51.338;12.524;2023-05-31T00:00:20;4.93;;;2.17;;
21862;SDS011;11096;51.338;12.524;2023-05-31T00:02:46;4.45;;;2.13;;
21862;SDS011;11096;51.338;12.524;2023-05-31T00:05:11;4.40;;;2.35;;
21862;SDS011;11096;51.338;12.524;2023-05-31T00:07:36;6.28;;;2.38;;
21862;SDS011;11096;51.338;12.524;2023-05-31T00:10:02;4.60;;;2.35;;
21862;SDS011;11096;51.338;12.524;2023-05-31T00:12:28;5.50;;;2.80;;
21862;SDS011;11096;51.338;12.524;2023-05-31T00:14:53;4.72;;;2.15;;
21862;SDS011;11096;51.338;12.524;2023-05-31T00:17:18;5.25;;;2.42;;
21862;SDS011;11096;51.338;12.524;2023-05-31T00:19:44;4.45;;;2.17;;
21862;SDS011;11096;51.338;12.524;2023-05-31T00:22:09;4.25;;;2.55;;
21862;SDS011;11096;51.338;12.524;2023-05-31T00:24:35;5.65;;;2.58;;
21862;SDS011;11096;51.338;12.524;2023-05-31T00:27:01;4.47;;;2.58;;
21862;SDS011;11096;51.338;12.524;2023-05-31T00:29:27;4.35;;;2.40;;
21862;SDS011;11096;51.338;12.524;2023-05-31T00:31:53;6.20;;;2.72;;
21862;SDS011;11096;51.338;12.524;2023-05-31T00:34:19;6.40;;;2.50;;
21862;SDS011;11096;51.338;12.524;2023-05-31T00:36:45;4.45;;;2.20;;
21862;SDS011;11096;51.338;12.524;2023-05-31T00:39:10;4.82;;;2.30;;
21862;SDS011;11096;51.338;12.524;2023-05-31T00:41:35;5.25;;;2.08;;
21862;SDS011;11096;51.338;12.524;2023-05-31T00:44:01;4.78;;;2.20;;
21862;SDS011;11096;51.338;12.524;2023-05-31T00:46:28;4.15;;;2.20;;
21862;SDS011;11096;51.338;12.524;2023-05-31T00:48:59;4.32;;;2.45;;
21862;SDS011;11096;51.338;12.524;2023-05-31T00:51:25;4.68;;;1.80;;
21862;SDS011;11096;51.338;12.524;2023-05-31T00:53:52;6.07;;;2.10;;
21862;SDS011;11096;51.338;12.524;2023-05-31T00:56:18;7.97;;;2.67;;
21862;SDS011;11096;51.338;12.524;2023-05-31T00:58:44;5.82;;;2.42;;
21862;SDS011;11096;51.338;12.524;2023-05-31T01:01:12;6.72;;;2.00;;
21862;SDS011;11096;51.338;12.524;2023-05-31T01:03:38;4.07;;;2.22;;
21862;SDS011;11096;51.338;12.524;2023-05-31T01:06:04;8.77;;;2.60;;
21862;SDS011;11096;51.338;12.524;2023-05-31T01:08:30;5.30;;;2.63;;
21862;SDS011;11096;51.338;12.524;2023-05-31T01:10:57;4.35;;;1.90;;
21862;SDS011;11096;51.338;12.524;2023-05-31T01:13:49;2.88;;;1.75;;
21862;SDS011;11096;51.338;12.524;2023-05-31T01:16:26;5.78;;;2.17;;
21862;SDS011;11096;51.338;12.524;2023-05-31T01:18:57;5.90;;;2.78;;
21862;SDS011;11096;51.338;12.524;2023-05-31T01:24:51;6.25;;;2.35;;
21862;SDS011;11096;51.338;12.524;2023-05-31T01:27:24;8.60;;;2.47;;
21862;SDS011;11096;51.338;12.524;2023-05-31T01:29:51;4.95;;;2.40;;
21862;SDS011;11096;51.338;12.524;2023-05-31T01:32:18;2.83;;;1.73;;
21862;SDS011;11096;51.338;12.524;2023-05-31T01:34:46;5.78;;;2.38;;
21862;SDS011;11096;51.338;12.524;2023-05-31T01:37:14;4.53;;;2.15;;
21862;SDS011;11096;51.338;12.524;2023-05-31T01:39:39;6.43;;;2.65;;
21862;SDS011;11096;51.338;12.524;2023-05-31T01:42:05;7.50;;;2.45;;
21862;SDS011;11096;51.338;12.524;2023-05-31T01:44:33;4.72;;;2.38;;
21862;SDS011;11096;51.338;12.524;2023-05-31T01:47:00;5.47;;;2.67;;
21862;SDS011;11096;51.338;12.524;2023-05-31T01:49:25;3.65;;;2.03;;
21862;SDS011;11096;51.338;12.524;2023-05-31T01:51:51;2.55;;;1.95;;
21862;SDS011;11096;51.338;12.524;2023-05-31T01:54:17;4.95;;;2.50;;
21862;SDS011;11096;51.338;12.524;2023-05-31T01:56:42;6.43;;;2.45;;
21862;SDS011;11096;51.338;12.524;2023-05-31T01:59:10;4.43;;;2.30;;
21862;SDS011;11096;51.338;12.524;2023-05-31T02:01:37;5.65;;;2.42;;
21862;SDS011;11096;51.338;12.524;2023-05-31T02:04:04;6.78;;;2.22;;
21862;SDS011;11096;51.338;12.524;2023-05-31T02:06:29;7.78;;;2.45;;
21862;SDS011;11096;51.338;12.524;2023-05-31T02:08:55;5.03;;;2.25;;
21862;SDS011;11096;51.338;12.524;2023-05-31T02:11:20;3.90;;;2.33;;
21862;SDS011;11096;51.338;12.524;2023-05-31T02:13:47;6.78;;;2.53;;
21862;SDS011;11096;51.338;12.524;2023-05-31T02:16:12;9.75;;;3.03;;
21862;SDS011;11096;51.338;12.524;2023-05-31T02:18:37;4.85;;;2.90;;
21862;SDS011;11096;51.338;12.524;2023-05-31T02:21:04;8.05;;;2.80;;
21862;SDS011;11096;51.338;12.524;2023-05-31T02:23:31;4.40;;;2.28;;
21862;SDS011;11096;51.338;12.524;2023-05-31T02:25:56;6.07;;;2.70;;
21862;SDS011;11096;51.338;12.524;2023-05-31T02:28:22;5.03;;;2.75;;
21862;SDS011;11096;51.338;12.524;2023-05-31T02:30:54;5.35;;;2.63;;
21862;SDS011;11096;51.338;12.524;2023-05-31T02:33:23;5.93;;;2.78;;
21862;SDS011;11096;51.338;12.524;2023-05-31T02:35:50;6.53;;;2.80;;
21862;SDS011;11096;51.338;12.524;2023-05-31T02:38:15;3.05;;;2.40;;
21862;SDS011;11096;51.338;12.524;2023-05-31T02:40:41;5.40;;;2.58;;
21862;SDS011;11096;51.338;12.524;2023-05-31T02:43:06;5.35;;;2.63;;
21862;SDS011;11096;51.338;12.524;2023-05-31T02:45:32;4.50;;;2.30;;
21862;SDS011;11096;51.338;12.524;2023-05-31T02:47:57;5.88;;;2.40;;
21862;SDS011;11096;51.338;12.524;2023-05-31T02:50:26;6.07;;;2.65;;
21862;SDS011;11096;51.338;12.524;2023-05-31T02:52:52;5.93;;;2.65;;
21862;SDS011;11096;51.338;12.524;2023-05-31T02:55:17;5.28;;;2.75;;
21862;SDS011;11096;51.338;12.524;2023-05-31T02:57:43;7.80;;;2.70;;
21862;SDS011;11096;51.338;12.524;2023-05-31T03:00:08;4.45;;;2.58;;
21862;SDS011;11096;51.338;12.524;2023-05-31T03:02:40;5.72;;;2.40;;
21862;SDS011;11096;51.338;12.524;2023-05-31T03:05:06;8.13;;;2.83;;
21862;SDS011;11096;51.338;12.524;2023-05-31T03:07:34;6.97;;;2.28;;
21862;SDS011;11096;51.338;12.524;2023-05-31T03:10:00;3.92;;;2.60;;
21862;SDS011;11096;51.338;12.524;2023-05-31T03:12:26;9.98;;;3.08;;
21862;SDS011;11096;51.338;12.524;2023-05-31T03:14:52;6.32;;;2.85;;
21862;SDS011;11096;51.338;12.524;2023-05-31T03:17:17;7.38;;;3.83;;
21862;SDS011;11096;51.338;12.524;2023-05-31T03:19:42;5.88;;;2.88;;
21862;SDS011;11096;51.338;12.524;2023-05-31T03:22:08;5.88;;;2.70;;
21862;SDS011;11096;51.338;12.524;2023-05-31T03:24:33;8.60;;;2.53;;
21862;SDS011;11096;51.338;12.524;2023-05-31T03:26:58;4.25;;;2.30;;
21862;SDS011;11096;51.338;12.524;2023-05-31T03:29:25;11.05;;;3.10;;
21862;SDS011;11096;51.338;12.524;2023-05-31T03:31:51;4.50;;;2.67;;
21862;SDS011;11096;51.338;12.524;2023-05-31T03:34:16;6.65;;;3.00;;
21862;SDS011;11096;51.338;12.524;2023-05-31T03:36:41;7.22;;;3.30;;
21862;SDS011;11096;51.338;12.524;2023-05-31T03:39:07;5.65;;;3.15;;
21862;SDS011;11096;51.338;12.524;2023-05-31T03:41:32;5.15;;;2.90;;
21862;SDS011;11096;51.338;12.524;2023-05-31T03:43:58;6.07;;;2.97;;
21862;SDS011;11096;51.338;12.524;2023-05-31T03:46:23;8.60;;;3.45;;
21862;SDS011;11096;51.338;12.524;2023-05-31T03:48:49;5.57;;;2.95;;
21862;SDS011;11096;51.338;12.524;2023-05-31T03:51:15;5.88;;;2.90;;
21862;SDS011;11096;51.338;12.524;2023-05-31T03:53:40;8.25;;;3.50;;
21862;SDS011;11096;51.338;12.524;2023-05-31T03:56:06;5.97;;;3.13;;
21862;SDS011;11096;51.338;12.524;2023-05-31T03:58:31;7.15;;;3.35;;
21862;SDS011;11096;51.338;12.524;2023-05-31T04:00:57;5.55;;;3.28;;
21862;SDS011;11096;51.338;12.524;2023-05-31T04:03:23;5.82;;;2.78;;
21862;SDS011;11096;51.338;12.524;2023-05-31T04:05:48;6.25;;;2.85;;
21862;SDS011;11096;51.338;12.524;2023-05-31T04:08:14;9.05;;;3.42;;
21862;SDS011;11096;51.338;12.524;2023-05-31T04:10:40;5.80;;;2.78;;
21862;SDS011;11096;51.338;12.524;2023-05-31T04:13:05;7.18;;;2.95;;
21862;SDS011;11096;51.338;12.524;2023-05-31T04:15:31;6.47;;;2.90;;
21862;SDS011;11096;51.338;12.524;2023-05-31T04:17:56;7.82;;;3.13;;
21862;SDS011;11096;51.338;12.524;2023-05-31T04:20:22;8.20;;;2.95;;
21862;SDS011;11096;51.338;12.524;2023-05-31T04:22:47;7.32;;;3.33;;
21862;SDS011;11096;51.338;12.524;2023-05-31T04:25:12;4.38;;;3.15;;
21862;SDS011;11096;51.338;12.524;2023-05-31T04:27:38;6.22;;;2.78;;
21862;SDS011;11096;51.338;12.524;2023-05-31T04:30:08;5.40;;;3.17;;
21862;SDS011;11096;51.338;12.524;2023-05-31T04:32:34;7.28;;;3.13;;
21862;SDS011;11096;51.338;12.524;2023-05-31T04:35:00;9.98;;;3.05;;
21862;SDS011;11096;51.338;12.524;2023-05-31T04:37:28;6.45;;;2.60;;
21862;SDS011;11096;51.338;12.524;2023-05-31T04:39:55;10.98;;;2.97;;
21862;SDS011;11096;51.338;12.524;2023-05-31T04:42:22;7.45;;;3.25;;
21862;SDS011;11096;51.338;12.524;2023-05-31T04:44:49;6.10;;;3.10;;
21862;SDS011;11096;51.338;12.524;2023-05-31T04:47:17;5.80;;;2.90;;
21862;SDS011;11096;51.338;12.524;2023-05-31T04:49:44;4.82;;;2.70;;
21862;SDS011;11096;51.338;12.524;2023-05-31T04:52:10;6.85;;;3.05;;
21862;SDS011;11096;51.338;12.524;2023-05-31T04:54:37;7.10;;;3.35;;
21862;SDS011;11096;51.338;12.524;2023-05-31T04:57:03;8.02;;;2.78;;
21862;SDS011;11096;51.338;12.524;2023-05-31T04:59:29;5.43;;;2.42;;
21862;SDS011;11096;51.338;12.524;2023-05-31T05:01:54;6.80;;;2.60;;
21862;SDS011;11096;51.338;12.524;2023-05-31T05:04:20;6.85;;;2.58;;
21862;SDS011;11096;51.338;12.524;2023-05-31T05:06:45;5.60;;;2.90;;
21862;SDS011;11096;51.338;12.524;2023-05-31T05:09:10;10.10;;;2.72;;
21862;SDS011;11096;51.338;12.524;2023-05-31T05:11:36;5.07;;;3.38;;
21862;SDS011;11096;51.338;12.524;2023-05-31T05:14:01;6.55;;;2.80;;
21862;SDS011;11096;51.338;12.524;2023-05-31T05:16:27;7.53;;;2.47;;
21862;SDS011;11096;51.338;12.524;2023-05-31T05:18:52;4.53;;;2.10;;
21862;SDS011;11096;51.338;12.524;2023-05-31T05:21:17;5.75;;;2.65;;
21862;SDS011;11096;51.338;12.524;2023-05-31T05:23:43;4.78;;;2.63;;
21862;SDS011;11096;51.338;12.524;2023-05-31T05:26:09;5.25;;;2.33;;
21862;SDS011;11096;51.338;12.524;2023-05-31T05:28:35;4.00;;;2.45;;
21862;SDS011;11096;51.338;12.524;2023-05-31T05:31:01;5.93;;;2.85;;
21862;SDS011;11096;51.338;12.524;2023-05-31T05:33:28;5.35;;;2.30;;
21862;SDS011;11096;51.338;12.524;2023-05-31T05:35:54;4.80;;;2.58;;
21862;SDS011;11096;51.338;12.524;2023-05-31T05:38:19;4.97;;;2.40;;
21862;SDS011;11096;51.338;12.524;2023-05-31T05:40:45;7.95;;;2.72;;
21862;SDS011;11096;51.338;12.524;2023-05-31T05:43:11;6.32;;;2.55;;
21862;SDS011;11096;51.338;12.524;2023-05-31T05:45:36;3.75;;;2.80;;
21862;SDS011;11096;51.338;12.524;2023-05-31T05:48:02;5.60;;;2.58;;
21862;SDS011;11096;51.338;12.524;2023-05-31T05:50:27;8.05;;;2.63;;
21862;SDS011;11096;51.338;12.524;2023-05-31T05:52:52;8.00;;;2.20;;
21862;SDS011;11096;51.338;12.524;2023-05-31T05:55:18;6.40;;;2.30;;
21862;SDS011;11096;51.338;12.524;2023-05-31T05:57:45;7.65;;;2.45;;
21862;SDS011;11096;51.338;12.524;2023-05-31T06:00:11;5.72;;;2.30;;
21862;SDS011;11096;51.338;12.524;2023-05-31T06:02:40;6.97;;;2.83;;
21862;SDS011;11096;51.338;12.524;2023-05-31T06:05:08;7.07;;;2.42;;
21862;SDS011;11096;51.338;12.524;2023-05-31T06:07:33;9.98;;;2.92;;
21862;SDS011;11096;51.338;12.524;2023-05-31T06:09:59;5.38;;;2.50;;
21862;SDS011;11096;51.338;12.524;2023-05-31T06:12:28;5.32;;;2.55;;
21862;SDS011;11096;51.338;12.524;2023-05-31T06:14:55;5.10;;;2.60;;
21862;SDS011;11096;51.338;12.524;2023-05-31T06:17:20;6.60;;;2.60;;
21862;SDS011;11096;51.338;12.524;2023-05-31T06:19:46;5.95;;;2.47;;
21862;SDS011;11096;51.338;12.524;2023-05-31T06:22:12;5.28;;;2.47;;
21862;SDS011;11096;51.338;12.524;2023-05-31T06:24:37;6.55;;;2.63;;
21862;SDS011;11096;51.338;12.524;2023-05-31T06:27:03;8.63;;;2.88;;
21862;SDS011;11096;51.338;12.524;2023-05-31T06:29:30;6.22;;;2.40;;
21862;SDS011;11096;51.338;12.524;2023-05-31T06:31:55;11.63;;;2.80;;
21862;SDS011;11096;51.338;12.524;2023-05-31T06:34:23;6.10;;;2.70;;
21862;SDS011;11096;51.338;12.524;2023-05-31T06:36:49;6.68;;;2.20;;
21862;SDS011;11096;51.338;12.524;2023-05-31T06:39:15;7.13;;;2.38;;
21862;SDS011;11096;51.338;12.524;2023-05-31T06:41:40;5.32;;;1.88;;
21862;SDS011;11096;51.338;12.524;2023-05-31T06:44:06;5.32;;;2.70;;
21862;SDS011;11096;51.338;12.524;2023-05-31T06:46:31;4.82;;;2.50;;
21862;SDS011;11096;51.338;12.524;2023-05-31T06:48:56;10.88;;;3.05;;
21862;SDS011;11096;51.338;12.524;2023-05-31T06:51:22;5.22;;;2.50;;
21862;SDS011;11096;51.338;12.524;2023-05-31T06:53:50;6.32;;;2.38;;
21862;SDS011;11096;51.338;12.524;2023-05-31T06:56:16;8.52;;;3.25;;
21862;SDS011;11096;51.338;12.524;2023-05-31T06:58:42;9.27;;;2.75;;
21862;SDS011;11096;51.338;12.524;2023-05-31T07:01:08;4.88;;;2.50;;
21862;SDS011;11096;51.338;12.524;2023-05-31T07:03:34;8.13;;;2.10;;
21862;SDS011;11096;51.338;12.524;2023-05-31T07:05:59;13.57;;;2.70;;
21862;SDS011;11096;51.338;12.524;2023-05-31T07:08:24;8.73;;;2.65;;
21862;SDS011;11096;51.338;12.524;2023-05-31T07:10:50;10.98;;;3.15;;
21862;SDS011;11096;51.338;12.524;2023-05-31T07:13:15;7.45;;;2.70;;
21862;SDS011;11096;51.338;12.524;2023-05-31T07:15:41;5.97;;;2.67;;
21862;SDS011;11096;51.338;12.524;2023-05-31T07:18:06;11.75;;;2.88;;
21862;SDS011;11096;51.338;12.524;2023-05-31T07:20:32;6.30;;;2.10;;
21862;SDS011;11096;51.338;12.524;2023-05-31T07:22:57;9.75;;;2.80;;
21862;SDS011;11096;51.338;12.524;2023-05-31T07:25:22;10.02;;;2.60;;
21862;SDS011;11096;51.338;12.524;2023-05-31T07:27:49;6.15;;;2.90;;
21862;SDS011;11096;51.338;12.524;2023-05-31T07:30:15;7.63;;;2.60;;
21862;SDS011;11096;51.338;12.524;2023-05-31T07:32:40;7.32;;;2.70;;
21862;SDS011;11096;51.338;12.524;2023-05-31T07:35:06;6.82;;;2.47;;
21862;SDS011;11096;51.338;12.524;2023-05-31T07:37:31;5.07;;;2.53;;
21862;SDS011;11096;51.338;12.524;2023-05-31T07:39:57;4.70;;;2.40;;
21862;SDS011;11096;51.338;12.524;2023-05-31T07:42:23;5.10;;;2.45;;
21862;SDS011;11096;51.338;12.524;2023-05-31T07:44:48;5.45;;;2.17;;
21862;SDS011;11096;51.338;12.524;2023-05-31T07:47:14;10.38;;;2.58;;
21862;SDS011;11096;51.338;12.524;2023-05-31T07:49:40;7.00;;;2.35;;
21862;SDS011;11096;51.338;12.524;2023-05-31T07:52:06;5.65;;;2.45;;
21862;SDS011;11096;51.338;12.524;2023-05-31T07:54:32;6.03;;;2.42;;
21862;SDS011;11096;51.338;12.524;2023-05-31T07:56:57;8.95;;;2.63;;
21862;SDS011;11096;51.338;12.524;2023-05-31T07:59:23;7.05;;;2.50;;
21862;SDS011;11096;51.338;12.524;2023-05-31T08:01:49;6.70;;;2.65;;
21862;SDS011;11096;51.338;12.524;2023-05-31T08:04:14;13.63;;;2.22;;
21862;SDS011;11096;51.338;12.524;2023-05-31T08:06:40;5.95;;;2.38;;
21862;SDS011;11096;51.338;12.524;2023-05-31T08:09:07;5.60;;;2.00;;
21862;SDS011;11096;51.338;12.524;2023-05-31T08:11:33;10.93;;;2.58;;
21862;SDS011;11096;51.338;12.524;2023-05-31T08:14:02;7.25;;;2.38;;
21862;SDS011;11096;51.338;12.524;2023-05-31T08:16:29;4.60;;;2.20;;
21862;SDS011;11096;51.338;12.524;2023-05-31T08:18:55;4.10;;;2.13;;
21862;SDS011;11096;51.338;12.524;2023-05-31T08:21:20;12.40;;;2.40;;
21862;SDS011;11096;51.338;12.524;2023-05-31T08:37:46;5.05;;;2.55;;
21862;SDS011;11096;51.338;12.524;2023-05-31T08:40:11;6.40;;;1.88;;
21862;SDS011;11096;51.338;12.524;2023-05-31T08:42:43;5.75;;;1.77;;
21862;SDS011;11096;51.338;12.524;2023-05-31T08:45:10;6.10;;;2.00;;
21862;SDS011;11096;51.338;12.524;2023-05-31T08:47:42;7.53;;;2.35;;
21862;SDS011;11096;51.338;12.524;2023-05-31T08:50:08;7.28;;;1.70;;
21862;SDS011;11096;51.338;12.524;2023-05-31T08:52:36;8.38;;;2.22;;
21862;SDS011;11096;51.338;12.524;2023-05-31T08:55:03;9.27;;;2.20;;
21862;SDS011;11096;51.338;12.524;2023-05-31T08:57:30;4.53;;;1.73;;
21862;SDS011;11096;51.338;12.524;2023-05-31T08:59:57;5.85;;;1.38;;
21862;SDS011;11096;51.338;12.524;2023-05-31T09:02:23;7.57;;;1.70;;
21862;SDS011;11096;51.338;12.524;2023-05-31T09:04:50;6.18;;;1.83;;
21862;SDS011;11096;51.338;12.524;2023-05-31T09:07:15;6.68;;;1.83;;
21862;SDS011;11096;51.338;12.524;2023-05-31T09:09:41;11.50;;;1.95;;
21862;SDS011;11096;51.338;12.524;2023-05-31T09:12:06;10.40;;;1.80;;
21862;SDS011;11096;51.338;12.524;2023-05-31T09:14:32;5.07;;;1.77;;
21862;SDS011;11096;51.338;12.524;2023-05-31T09:16:59;5.57;;;1.58;;
21862;SDS011;11096;51.338;12.524;2023-05-31T09:19:24;5.97;;;1.65;;
21862;SDS011;11096;51.338;12.524;2023-05-31T09:21:51;6.07;;;1.60;;
21862;SDS011;11096;51.338;12.524;2023-05-31T09:24:17;8.30;;;1.70;;
21862;SDS011;11096;51.338;12.524;2023-05-31T09:26:49;6.57;;;1.45;;
21862;SDS011;11096;51.338;12.524;2023-05-31T09:29:16;8.23;;;1.83;;
21862;SDS011;11096;51.338;12.524;2023-05-31T09:31:43;4.30;;;1.83;;
21862;SDS011;11096;51.338;12.524;2023-05-31T09:34:23;8.10;;;1.67;;
21862;SDS011;11096;51.338;12.524;2023-05-31T09:36:51;6.40;;;2.13;;
21862;SDS011;11096;51.338;12.524;2023-05-31T09:39:17;6.13;;;1.70;;
21862;SDS011;11096;51.338;12.524;2023-05-31T09:41:42;5.38;;;1.83;;
21862;SDS011;11096;51.338;12.524;2023-05-31T09:44:08;3.63;;;1.45;;
21862;SDS011;11096;51.338;12.524;2023-05-31T09:46:34;9.07;;;1.45;;
21862;SDS011;11096;51.338;12.524;2023-05-31T09:49:00;4.25;;;1.55;;
21862;SDS011;11096;51.338;12.524;2023-05-31T09:51:28;3.92;;;1.20;;
21862;SDS011;11096;51.338;12.524;2023-05-31T09:53:55;3.95;;;1.48;;
21862;SDS011;11096;51.338;12.524;2023-05-31T09:56:21;6.22;;;1.33;;
21862;SDS011;11096;51.338;12.524;2023-05-31T09:58:49;3.88;;;1.55;;
21862;SDS011;11096;51.338;12.524;2023-05-31T10:01:15;3.90;;;1.38;;
21862;SDS011;11096;51.338;12.524;2023-05-31T10:03:41;5.38;;;1.35;;
21862;SDS011;11096;51.338;12.524;2023-05-31T10:06:08;4.53;;;1.30;;
21862;SDS011;11096;51.338;12.524;2023-05-31T10:08:34;3.78;;;1.05;;
21862;SDS011;11096;51.338;12.524;2023-05-31T10:11:00;6.80;;;1.70;;
21862;SDS011;11096;51.338;12.524;2023-05-31T10:13:27;4.95;;;1.38;;
21862;SDS011;11096;51.338;12.524;2023-05-31T10:15:54;5.15;;;1.50;;
21862;SDS011;11096;51.338;12.524;2023-05-31T10:18:22;3.30;;;1.30;;
21862;SDS011;11096;51.338;12.524;2023-05-31T10:20:55;4.78;;;1.48;;
21862;SDS011;11096;51.338;12.524;2023-05-31T10:23:41;3.38;;;1.60;;
21862;SDS011;11096;51.338;12.524;2023-05-31T10:28:39;3.80;;;1.35;;
21862;SDS011;11096;51.338;12.524;2023-05-31T10:31:30;4.05;;;1.40;;
21862;SDS011;11096;51.338;12.524;2023-05-31T10:34:14;6.78;;;1.40;;
21862;SDS011;11096;51.338;12.524;2023-05-31T10:36:51;4.78;;;1.30;;
21862;SDS011;11096;51.338;12.524;2023-05-31T10:41:53;4.32;;;1.42;;
21862;SDS011;11096;51.338;12.524;2023-05-31T10:44:28;4.43;;;1.40;;
21862;SDS011;11096;51.338;12.524;2023-05-31T10:47:00;3.92;;;1.30;;
21862;SDS011;11096;51.338;12.524;2023-05-31T10:49:29;9.77;;;1.30;;
21862;SDS011;11096;51.338;12.524;2023-05-31T10:52:05;4.68;;;1.50;;
21862;SDS011;11096;51.338;12.524;2023-05-31T10:54:33;4.35;;;1.40;;
21862;SDS011;11096;51.338;12.524;2023-05-31T10:56:59;8.00;;;1.40;;
21862;SDS011;11096;51.338;12.524;2023-05-31T10:59:28;6.13;;;1.65;;
21862;SDS011;11096;51.338;12.524;2023-05-31T11:01:54;5.07;;;1.42;;
21862;SDS011;11096;51.338;12.524;2023-05-31T11:04:24;8.98;;;1.75;;
21862;SDS011;11096;51.338;12.524;2023-05-31T11:06:54;7.68;;;1.40;;
21862;SDS011;11096;51.338;12.524;2023-05-31T11:09:37;2.45;;;1.15;;
21862;SDS011;11096;51.338;12.524;2023-05-31T11:12:04;5.97;;;1.00;;
21862;SDS011;11096;51.338;12.524;2023-05-31T11:14:31;5.40;;;1.25;;
21862;SDS011;11096;51.338;12.524;2023-05-31T11:19:27;3.63;;;0.90;;
21862;SDS011;11096;51.338;12.524;2023-05-31T11:24:37;3.30;;;1.30;;
21862;SDS011;11096;51.338;12.524;2023-05-31T11:27:03;7.20;;;1.50;;
21862;SDS011;11096;51.338;12.524;2023-05-31T11:32:09;3.78;;;1.40;;
21862;SDS011;11096;51.338;12.524;2023-05-31T11:34:34;2.85;;;1.13;;
21862;SDS011;11096;51.338;12.524;2023-05-31T11:37:01;5.55;;;1.45;;
21862;SDS011;11096;51.338;12.524;2023-05-31T11:39:28;3.40;;;1.75;;
21862;SDS011;11096;51.338;12.524;2023-05-31T11:41:54;2.60;;;1.05;;
21862;SDS011;11096;51.338;12.524;2023-05-31T11:44:24;2.90;;;1.40;;
21862;SDS011;11096;51.338;12.524;2023-05-31T11:46:56;5.63;;;1.42;;
21862;SDS011;11096;51.338;12.524;2023-05-31T11:49:26;4.40;;;1.27;;
21862;SDS011;11096;51.338;12.524;2023-05-31T11:51:53;2.72;;;1.15;;
21862;SDS011;11096;51.338;12.524;2023-05-31T11:54:24;3.13;;;1.48;;
21862;SDS011;11096;51.338;12.524;2023-05-31T11:56:51;3.10;;;1.40;;
21862;SDS011;11096;51.338;12.524;2023-05-31T11:59:21;4.75;;;1.48;;
21862;SDS011;11096;51.338;12.524;2023-05-31T12:01:46;6.18;;;1.50;;
21862;SDS011;11096;51.338;12.524;2023-05-31T12:04:11;4.97;;;1.50;;
21862;SDS011;11096;51.338;12.524;2023-05-31T12:06:37;3.50;;;1.17;;
21862;SDS011;11096;51.338;12.524;2023-05-31T12:09:02;2.67;;;1.38;;
21862;SDS011;11096;51.338;12.524;2023-05-31T12:11:28;5.35;;;1.42;;
21862;SDS011;11096;51.338;12.524;2023-05-31T12:13:54;8.93;;;1.48;;
21862;SDS011;11096;51.338;12.524;2023-05-31T12:16:22;2.38;;;1.15;;
21862;SDS011;11096;51.338;12.524;2023-05-31T12:18:48;4.45;;;1.50;;
21862;SDS011;11096;51.338;12.524;2023-05-31T12:21:13;3.63;;;1.10;;
21862;SDS011;11096;51.338;12.524;2023-05-31T12:23:56;4.97;;;1.30;;
21862;SDS011;11096;51.338;12.524;2023-05-31T12:26:27;3.50;;;1.08;;
21862;SDS011;11096;51.338;12.524;2023-05-31T12:28:52;5.03;;;1.48;;
21862;SDS011;11096;51.338;12.524;2023-05-31T12:31:24;4.60;;;1.15;;
21862;SDS011;11096;51.338;12.524;2023-05-31T12:33:59;5.50;;;1.27;;
21862;SDS011;11096;51.338;12.524;2023-05-31T12:36:41;3.45;;;1.30;;
21862;SDS011;11096;51.338;12.524;2023-05-31T12:39:11;4.55;;;1.60;;
21862;SDS011;11096;51.338;12.524;2023-05-31T12:41:42;5.93;;;1.40;;
21862;SDS011;11096;51.338;12.524;2023-05-31T12:44:11;6.88;;;1.42;;
21862;SDS011;11096;51.338;12.524;2023-05-31T12:46:42;5.57;;;1.40;;
21862;SDS011;11096;51.338;12.524;2023-05-31T12:49:12;4.25;;;1.48;;
21862;SDS011;11096;51.338;12.524;2023-05-31T12:51:46;6.65;;;1.73;;
21862;SDS011;11096;51.338;12.524;2023-05-31T12:54:13;3.67;;;1.27;;
21862;SDS011;11096;51.338;12.524;2023-05-31T12:56:41;4.43;;;1.50;;
21862;SDS011;11096;51.338;12.524;2023-05-31T12:59:07;4.40;;;1.58;;
21862;SDS011;11096;51.338;12.524;2023-05-31T13:01:33;6.22;;;1.50;;
21862;SDS011;11096;51.338;12.524;2023-05-31T13:04:00;4.43;;;1.48;;
21862;SDS011;11096;51.338;12.524;2023-05-31T13:06:25;4.88;;;1.50;;
21862;SDS011;11096;51.338;12.524;2023-05-31T13:08:51;3.65;;;1.40;;
21862;SDS011;11096;51.338;12.524;2023-05-31T13:11:16;3.47;;;1.60;;
21862;SDS011;11096;51.338;12.524;2023-05-31T13:13:42;3.60;;;1.25;;
21862;SDS011;11096;51.338;12.524;2023-05-31T13:16:07;3.70;;;1.50;;
21862;SDS011;11096;51.338;12.524;2023-05-31T13:18:34;5.30;;;1.50;;
21862;SDS011;11096;51.338;12.524;2023-05-31T13:20:59;5.22;;;1.33;;
21862;SDS011;11096;51.338;12.524;2023-05-31T13:23:24;3.90;;;1.35;;
21862;SDS011;11096;51.338;12.524;2023-05-31T13:25:50;6.80;;;1.48;;
21862;SDS011;11096;51.338;12.524;2023-05-31T13:28:16;7.78;;;1.95;;
21862;SDS011;11096;51.338;12.524;2023-05-31T13:30:41;5.43;;;1.38;;
21862;SDS011;11096;51.338;12.524;2023-05-31T13:33:07;4.82;;;1.55;;
21862;SDS011;11096;51.338;12.524;2023-05-31T13:35:32;4.65;;;1.52;;
21862;SDS011;11096;51.338;12.524;2023-05-31T13:37:58;5.15;;;1.70;;
21862;SDS011;11096;51.338;12.524;2023-05-31T13:40:23;6.53;;;2.03;;
21862;SDS011;11096;51.338;12.524;2023-05-31T13:42:49;5.90;;;1.38;;
21862;SDS011;11096;51.338;12.524;2023-05-31T13:45:14;2.33;;;1.08;;
21862;SDS011;11096;51.338;12.524;2023-05-31T13:47:40;4.57;;;1.42;;
21862;SDS011;11096;51.338;12.524;2023-05-31T13:50:06;3.78;;;1.67;;
21862;SDS011;11096;51.338;12.524;2023-05-31T13:52:32;3.13;;;1.20;;
21862;SDS011;11096;51.338;12.524;2023-05-31T13:54:57;3.00;;;1.58;;
21862;SDS011;11096;51.338;12.524;2023-05-31T13:57:24;6.22;;;1.77;;
21862;SDS011;11096;51.338;12.524;2023-05-31T13:59:50;4.30;;;1.65;;
21862;SDS011;11096;51.338;12.524;2023-05-31T14:02:16;4.65;;;1.38;;
21862;SDS011;11096;51.338;12.524;2023-05-31T14:04:42;5.00;;;1.33;;
21862;SDS011;11096;51.338;12.524;2023-05-31T14:07:07;3.80;;;1.10;;
21862;SDS011;11096;51.338;12.524;2023-05-31T14:09:33;4.95;;;1.75;;
21862;SDS011;11096;51.338;12.524;2023-05-31T14:11:58;2.67;;;1.45;;
21862;SDS011;11096;51.338;12.524;2023-05-31T14:14:24;5.47;;;1.58;;
21862;SDS011;11096;51.338;12.524;2023-05-31T14:16:51;5.93;;;1.77;;
21862;SDS011;11096;51.338;12.524;2023-05-31T14:19:17;4.43;;;1.55;;
21862;SDS011;11096;51.338;12.524;2023-05-31T14:21:43;6.45;;;1.60;;
21862;SDS011;11096;51.338;12.524;2023-05-31T14:24:08;4.35;;;1.25;;
21862;SDS011;11096;51.338;12.524;2023-05-31T14:26:34;2.75;;;1.30;;
21862;SDS011;11096;51.338;12.524;2023-05-31T14:28:59;4.30;;;1.25;;
21862;SDS011;11096;51.338;12.524;2023-05-31T14:31:25;4.82;;;1.60;;
21862;SDS011;11096;51.338;12.524;2023-05-31T14:33:50;6.72;;;1.63;;
21862;SDS011;11096;51.338;12.524;2023-05-31T14:36:16;5.40;;;1.55;;
21862;SDS011;11096;51.338;12.524;2023-05-31T14:38:41;5.78;;;1.48;;
21862;SDS011;11096;51.338;12.524;2023-05-31T14:41:07;2.92;;;1.45;;
21862;SDS011;11096;51.338;12.524;2023-05-31T14:43:32;3.63;;;1.27;;
21862;SDS011;11096;51.338;12.524;2023-05-31T14:45:58;4.13;;;1.40;;
21862;SDS011;11096;51.338;12.524;2023-05-31T14:48:23;2.58;;;1.40;;
21862;SDS011;11096;51.338;12.524;2023-05-31T14:50:48;2.20;;;1.50;;
21862;SDS011;11096;51.338;12.524;2023-05-31T14:53:14;4.20;;;1.50;;
21862;SDS011;11096;51.338;12.524;2023-05-31T14:55:40;5.55;;;1.55;;
21862;SDS011;11096;51.338;12.524;2023-05-31T14:58:05;4.85;;;1.50;;
21862;SDS011;11096;51.338;12.524;2023-05-31T15:00:31;3.53;;;1.45;;